14:29
Airports
History
Links
Donate
Help keep this website running!
PayPal
Bitcoin
Information on this page is community maintained and may be outdated or inaccurate and is intended for reference only or PC simulator navigating!
Always use approved charts for navigating.
Y46
Bedford MuniUpdated 28-Jul-2013
Bedford Muni (Y46)
Bedford, Iowa, United States (50833)
4
Lat/Lng:40° 38' 15.96" N / 94° 43' 45.89" W
40.637767 / -94.729414
Elevation:1201'ft 366mMSL
Declination:E005°
ID / ICAO:Y46
FAA:Y46
Runways:1
Longest:(18-36) 820.8m 2,693ft Grass
Distance To
Airport ID:
Nearby VORs <50NM
Nearby NDBs
Nearby WeatherUpdated 03-30-17 14:15 GMT
Nearby weather at KICL, Schenck Field located 16.6 nautical miles from Y46
Altimeter: 29.67
Visibility: 5.0 statute miles
Wind: 16 knots (030°)
Temp: 6°c 43°f
Humidity: 100.0%

METAR: KICL 301415Z AUTO 03016KT 5SM BR OVC005 06/06 A2967 RMK AO2 PWINO

(Powered by phpweather)
Runway 18 / 36
Dimensions:820.8 x 30.5m 2693' x 100'ft
Surface:Grass
Runway 18 [A]Runway 36 [B]
Heading:179°MH  184°TH359°MH   004°TH
Lat:
Lng:
40° 38' 29.29"N
94° 43' 44.35"W
40° 38' 2.63"N
94° 43' 47.42"W
Google Map
Nearby Airports
(R) Hibbs Farm 11.7 NM
MO62 SE 138°
(U) Schenck Field 16.6 NM
KICL (WX) WNW 290°
4 Brown Truck Sales 18.2 NM
1IA0 N 349°
(R) Hester 19.3 NM
MU09 SW 232°
(U) Rankin 21.9 NM
78Y SSW 194°
(U) Northwest Missouri Rgnl 22.0 NM
KEVU SSW 206°
(U) Corning Muni 24.7 NM
KCRZ N 356°
VFR Chart
Flight Planning at SkyVector.com